Time;durP1;ratioP1;P1;durP2;ratioP2;P2;SDS_P1;SDS_P2;PMS_P1;PMS_P2;Temp;Humidity;BMP_temperature;BMP_pressure;BME280_temperature;BME280_humidity;BME280_pressure;Samples;Min_cycle;Max_cycle;Signal;HPM_P1;HPM_P2
2022/10/07 00:01:10;;;;;;;;;;;18.10;97.90;;;;;;5012679;28;19910;-23
2022/10/07 00:03:36;;;;;;;;;;;18.10;97.90;;;;;;5012437;28;19910;-23
2022/10/07 00:06:03;;;;;;;;;;;18.10;97.90;;;;;;5012242;28;19910;-23
2022/10/07 00:08:29;;;;;;;;;;;18.10;97.90;;;;;;5012696;28;19905;-23
2022/10/07 00:10:55;;;;;;;;;;;18.10;97.90;;;;;;5012362;28;19909;-23
2022/10/07 00:13:21;;;;;;;;;;;18.10;97.90;;;;;;5010870;28;19916;-23
2022/10/07 00:15:46;;;;;;;;;;;18.10;97.90;;;;;;5012185;28;19925;-23
2022/10/07 00:18:11;;;;;;;;;;;18.10;97.90;;;;;;5012284;28;19952;-23
2022/10/07 00:20:38;;;;;;;;;;;18.10;97.90;;;;;;5011976;28;19996;-23
2022/10/07 00:23:04;;;;;;;;;;;18.10;97.90;;;;;;5011905;28;20272;-23
2022/10/07 00:25:29;;;;;;;;;;;18.10;97.90;;;;;;5012660;28;19917;-23
2022/10/07 00:27:55;;;;;;;;;;;18.10;97.90;;;;;;5012164;28;19905;-23
2022/10/07 00:30:20;;;;;;;;;;;18.10;97.90;;;;;;5012551;28;20287;-23
2022/10/07 00:32:46;;;;;;;;;;;18.10;97.90;;;;;;5011854;28;20397;-23
2022/10/07 00:35:37;;;;;;;;;;;18.00;97.90;;;;;;5011998;28;19909;-23
2022/10/07 00:38:02;;;;;;;;;;;18.10;97.90;;;;;;5010801;28;20436;-23
2022/10/07 00:40:28;;;;;;;;;;;18.00;97.90;;;;;;5014771;28;19918;-23
2022/10/07 00:42:53;;;;;;;;;;;18.10;97.90;;;;;;5016233;28;19906;-23
2022/10/07 00:45:20;;;;;;;;;;;18.00;97.90;;;;;;5016026;28;19909;-23
2022/10/07 00:47:49;;;;;;;;;;;18.00;97.90;;;;;;5015895;28;19911;-23
2022/10/07 00:50:19;;;;;;;;;;;18.00;97.90;;;;;;5015977;28;19912;-23
2022/10/07 00:52:48;;;;;;;;;;;18.00;97.90;;;;;;5015775;28;20322;-23
2022/10/07 00:55:17;;;;;;;;;;;18.00;97.90;;;;;;5015885;28;20299;-23
2022/10/07 00:57:43;;;;;;;;;;;18.00;97.90;;;;;;5015766;28;20007;-23
2022/10/07 01:00:09;;;;;;;;;;;18.00;97.90;;;;;;5015627;28;19916;-23
2022/10/07 01:02:35;;;;;;;;;;;18.00;97.90;;;;;;5015501;28;19999;-23
2022/10/07 01:05:02;;;;;;;;;;;18.00;97.90;;;;;;5015604;28;19917;-23
2022/10/07 01:07:28;;;;;;;;;;;18.00;97.90;;;;;;5015463;28;20378;-23
2022/10/07 01:09:54;;;;;;;;;;;18.00;97.90;;;;;;5015625;28;19916;-23
2022/10/07 01:12:38;;;;;;;;;;;18.00;97.90;;;;;;5038997;22;19925;-24
2022/10/07 01:15:04;;;;;;;;;;;18.00;97.90;;;;;;5015510;28;20376;-24
2022/10/07 01:17:51;;;;;;;;;;;18.00;97.90;;;;;;5015505;28;19909;-24
2022/10/07 01:20:35;;;;;;;;;;;17.90;97.90;;;;;;5015860;28;19912;-25
2022/10/07 01:23:14;;;;;;;;;;;18.00;98.20;;;;;;5015089;28;20382;-25
2022/10/07 01:25:59;;;;;;;;;;;18.00;97.90;;;;;;5015272;28;19921;-25
2022/10/07 01:28:28;;;;;;;;;;;17.90;97.90;;;;;;5015254;28;19912;-25
2022/10/07 01:30:57;;;;;;;;;;;18.00;97.90;;;;;;5015112;28;19915;-24
2022/10/07 01:33:26;;;;;;;;;;;17.90;97.90;;;;;;5014906;28;19945;-25
2022/10/07 01:35:53;;;;;;;;;;;17.90;97.90;;;;;;5015052;28;19967;-25
2022/10/07 01:38:21;;;;;;;;;;;18.00;98.00;;;;;;5015059;28;19912;-24
2022/10/07 01:40:54;;;;;;;;;;;17.90;98.00;;;;;;5014956;28;20282;-25
2022/10/07 01:43:21;;;;;;;;;;;17.90;98.00;;;;;;5014610;28;19911;-24
2022/10/07 01:45:47;;;;;;;;;;;17.90;98.00;;;;;;5014833;28;20011;-24
2022/10/07 01:48:14;;;;;;;;;;;17.90;98.00;;;;;;5013494;28;19960;-24
2022/10/07 01:50:39;;;;;;;;;;;17.90;98.00;;;;;;5013934;28;19909;-25
2022/10/07 01:53:11;;;;;;;;;;;17.90;98.00;;;;;;5014573;28;20373;-26
2022/10/07 01:55:40;;;;;;;;;;;17.90;98.00;;;;;;5015060;28;20319;-24
2022/10/07 01:58:24;;;;;;;;;;;17.90;98.00;;;;;;5014666;28;19909;-25
2022/10/07 02:00:54;;;;;;;;;;;17.90;98.00;;;;;;5013650;28;19951;-24
2022/10/07 02:03:31;;;;;;;;;;;17.90;98.00;;;;;;5014398;28;19959;-25
2022/10/07 02:06:00;;;;;;;;;;;17.90;98.00;;;;;;5014529;28;20401;-24
2022/10/07 02:08:34;;;;;;;;;;;17.90;98.00;;;;;;5014434;28;19945;-24
2022/10/07 02:11:03;;;;;;;;;;;17.90;98.00;;;;;;5014527;28;19905;-24
2022/10/07 02:13:38;;;;;;;;;;;17.90;98.00;;;;;;5014119;28;20124;-24
2022/10/07 02:16:29;;;;;;;;;;;17.90;98.00;;;;;;5014376;28;19941;-24
2022/10/07 02:18:57;;;;;;;;;;;17.90;98.00;;;;;;5014352;28;19905;-24
2022/10/07 02:21:25;;;;;;;;;;;17.90;98.00;;;;;;5014187;28;20386;-25
2022/10/07 02:23:51;;;;;;;;;;;17.90;98.00;;;;;;5013902;28;19955;-25
2022/10/07 02:26:19;;;;;;;;;;;17.90;98.00;;;;;;5014160;28;20378;-25
2022/10/07 02:28:46;;;;;;;;;;;17.80;98.00;;;;;;5012856;28;19905;-25
2022/10/07 02:31:16;;;;;;;;;;;17.80;98.00;;;;;;5014048;28;20175;-24
2022/10/07 02:33:45;;;;;;;;;;;17.80;98.00;;;;;;5013810;28;20373;-24
2022/10/07 02:36:17;;;;;;;;;;;17.80;98.00;;;;;;5013953;28;19906;-25
2022/10/07 02:38:43;;;;;;;;;;;17.90;98.00;;;;;;5013898;28;19905;-25
2022/10/07 02:41:12;;;;;;;;;;;17.90;98.00;;;;;;5013959;28;20381;-24
2022/10/07 02:43:52;;;;;;;;;;;17.90;98.00;;;;;;5013486;28;19905;-24
2022/10/07 02:46:21;;;;;;;;;;;17.90;98.00;;;;;;5013770;28;19951;-25
2022/10/07 02:48:53;;;;;;;;;;;17.80;98.00;;;;;;5013667;28;19910;-24
2022/10/07 02:51:20;;;;;;;;;;;17.80;98.00;;;;;;5013665;28;19906;-25
2022/10/07 02:53:48;;;;;;;;;;;17.80;98.00;;;;;;5013351;28;20359;-25
2022/10/07 02:56:15;;;;;;;;;;;17.80;98.00;;;;;;5013482;28;19905;-25
2022/10/07 02:58:44;;;;;;;;;;;17.80;98.00;;;;;;5013498;28;19916;-25
2022/10/07 03:01:11;;;;;;;;;;;17.80;98.00;;;;;;5013710;28;19947;-24
2022/10/07 03:03:37;;;;;;;;;;;17.80;98.00;;;;;;5013153;28;19912;-24
2022/10/07 03:06:03;;;;;;;;;;;17.80;98.00;;;;;;5013391;28;19909;-25
2022/10/07 03:08:28;;;;;;;;;;;17.80;98.00;;;;;;5013418;28;19905;-25
2022/10/07 03:10:54;;;;;;;;;;;17.80;98.00;;;;;;5013265;28;20027;-24
2022/10/07 03:13:19;;;;;;;;;;;17.80;98.00;;;;;;5013166;28;19913;-25
2022/10/07 03:15:45;;;;;;;;;;;17.80;98.00;;;;;;5013320;28;20460;-24
2022/10/07 03:18:24;;;;;;;;;;;17.80;98.00;;;;;;5013267;28;19916;-24
2022/10/07 03:20:52;;;;;;;;;;;17.80;98.00;;;;;;5013203;28;19909;-25
2022/10/07 03:23:18;;;;;;;;;;;17.80;98.00;;;;;;5012820;28;19905;-25
2022/10/07 03:25:47;;;;;;;;;;;17.80;98.00;;;;;;5013102;28;19909;-25
2022/10/07 03:28:13;;;;;;;;;;;17.80;98.00;;;;;;5013060;28;20353;-25
2022/10/07 03:30:39;;;;;;;;;;;17.70;98.00;;;;;;5012982;28;19909;-24
2022/10/07 03:33:04;;;;;;;;;;;17.70;98.00;;;;;;5012650;28;20310;-24
2022/10/07 03:35:30;;;;;;;;;;;17.70;98.00;;;;;;5012892;28;19905;-24
2022/10/07 03:37:55;;;;;;;;;;;17.80;98.00;;;;;;5012733;28;20377;-25
2022/10/07 03:40:21;;;;;;;;;;;17.70;98.00;;;;;;5012839;28;19960;-25
2022/10/07 03:42:48;;;;;;;;;;;17.70;98.00;;;;;;5012492;28;19906;-25
2022/10/07 03:45:14;;;;;;;;;;;17.70;98.00;;;;;;5012691;28;19917;-25
2022/10/07 03:47:40;;;;;;;;;;;17.70;98.00;;;;;;5012570;28;19905;-24
2022/10/07 03:50:05;;;;;;;;;;;17.70;98.00;;;;;;5012653;28;20060;-25
2022/10/07 03:52:31;;;;;;;;;;;17.70;98.00;;;;;;5012229;28;19905;-25
2022/10/07 03:54:56;;;;;;;;;;;17.70;98.10;;;;;;5012569;28;19906;-26
2022/10/07 04:00:06;;;;;;;;;;;17.70;98.10;;;;;;5012867;28;20349;-24
2022/10/07 04:02:32;;;;;;;;;;;17.70;98.10;;;;;;5012159;28;19953;-24
2022/10/07 04:04:58;;;;;;;;;;;17.70;98.10;;;;;;5010897;28;19959;-24
2022/10/07 04:07:23;;;;;;;;;;;17.70;98.00;;;;;;5012614;28;20000;-24
2022/10/07 04:09:49;;;;;;;;;;;17.70;98.10;;;;;;5012363;28;19913;-24
2022/10/07 04:12:14;;;;;;;;;;;17.70;98.00;;;;;;5012118;28;19917;-24
2022/10/07 04:14:40;;;;;;;;;;;17.70;98.00;;;;;;5011776;28;19996;-24
2022/10/07 04:17:05;;;;;;;;;;;17.70;98.10;;;;;;5012300;28;20247;-25
2022/10/07 04:19:31;;;;;;;;;;;17.70;98.10;;;;;;5012061;28;20266;-24
2022/10/07 04:21:57;;;;;;;;;;;17.70;98.10;;;;;;5012140;28;20259;-25
2022/10/07 04:24:22;;;;;;;;;;;17.70;98.00;;;;;;5011896;28;19909;-25
2022/10/07 04:26:48;;;;;;;;;;;17.70;98.10;;;;;;5012306;28;20009;-25
2022/10/07 04:29:14;;;;;;;;;;;17.70;98.10;;;;;;5012122;28;19967;-26
2022/10/07 04:31:39;;;;;;;;;;;17.70;98.10;;;;;;5012133;28;19963;-24
2022/10/07 04:34:05;;;;;;;;;;;17.70;98.10;;;;;;5011648;28;19956;-25
2022/10/07 04:36:31;;;;;;;;;;;17.70;98.10;;;;;;5012115;28;19906;-24
2022/10/07 04:38:57;;;;;;;;;;;17.70;98.10;;;;;;5012064;28;20004;-25
2022/10/07 04:41:22;;;;;;;;;;;17.70;98.10;;;;;;5012046;28;19905;-24
2022/10/07 04:43:51;;;;;;;;;;;17.70;98.10;;;;;;5011619;28;19959;-26
2022/10/07 04:46:16;;;;;;;;;;;17.70;98.10;;;;;;5011936;28;19924;-25
2022/10/07 04:48:42;;;;;;;;;;;17.70;98.10;;;;;;5011772;28;19906;-24
2022/10/07 04:51:08;;;;;;;;;;;17.70;98.10;;;;;;5011930;28;19932;-25
2022/10/07 04:53:35;;;;;;;;;;;17.70;98.10;;;;;;5011604;28;19963;-25
2022/10/07 04:56:02;;;;;;;;;;;17.70;98.10;;;;;;5011910;28;19936;-25
2022/10/07 04:58:28;;;;;;;;;;;17.60;98.10;;;;;;5011811;28;19909;-25
2022/10/07 05:00:55;;;;;;;;;;;17.60;98.10;;;;;;5011832;28;19945;-26
2022/10/07 05:03:21;;;;;;;;;;;17.60;98.10;;;;;;5011382;28;19912;-25
2022/10/07 05:05:48;;;;;;;;;;;17.60;98.10;;;;;;5011691;28;19936;-25
2022/10/07 05:08:14;;;;;;;;;;;17.70;98.20;;;;;;5011999;28;19906;-25
2022/10/07 05:10:41;;;;;;;;;;;17.60;98.10;;;;;;5011711;28;19912;-24
2022/10/07 05:13:08;;;;;;;;;;;17.70;98.20;;;;;;5011361;28;19918;-25
2022/10/07 05:15:33;;;;;;;;;;;17.60;98.10;;;;;;5011763;28;19913;-25
2022/10/07 05:17:59;;;;;;;;;;;17.60;98.10;;;;;;5011443;28;19910;-24
2022/10/07 05:20:25;;;;;;;;;;;17.60;98.10;;;;;;5011761;28;19913;-25
2022/10/07 05:22:51;;;;;;;;;;;17.60;98.10;;;;;;5011272;28;19905;-25
2022/10/07 05:25:16;;;;;;;;;;;17.60;98.10;;;;;;5011663;28;19913;-25
2022/10/07 05:27:42;;;;;;;;;;;17.60;98.10;;;;;;5015314;28;20259;-24
2022/10/07 05:30:08;;;;;;;;;;;17.60;98.10;;;;;;5015703;28;20422;-25
2022/10/07 05:32:33;;;;;;;;;;;17.60;98.10;;;;;;5014822;28;20414;-24
2022/10/07 05:35:00;;;;;;;;;;;17.60;98.10;;;;;;5013830;28;19905;-25
2022/10/07 05:37:26;;;;;;;;;;;17.60;98.10;;;;;;5015320;28;19912;-25
2022/10/07 05:39:52;;;;;;;;;;;17.60;98.10;;;;;;5015236;28;19906;-25
2022/10/07 05:42:17;;;;;;;;;;;17.60;98.10;;;;;;5015022;28;19906;-24
2022/10/07 05:44:43;;;;;;;;;;;17.60;98.10;;;;;;5014802;28;20362;-24
2022/10/07 05:47:09;;;;;;;;;;;17.60;98.10;;;;;;4997138;28;20272;-25
2022/10/07 05:49:34;;;;;;;;;;;17.60;98.10;;;;;;5015049;28;19913;-24
2022/10/07 05:52:01;;;;;;;;;;;17.60;98.10;;;;;;5013428;28;20432;-24
2022/10/07 05:54:26;;;;;;;;;;;17.60;98.20;;;;;;5013418;28;19933;-24
2022/10/07 05:56:52;;;;;;;;;;;17.60;98.20;;;;;;5014792;28;20382;-26
2022/10/07 05:59:19;;;;;;;;;;;17.50;98.20;;;;;;5014684;28;19944;-24
2022/10/07 06:01:45;;;;;;;;;;;17.50;98.20;;;;;;5014493;28;19917;-24
2022/10/07 06:04:10;;;;;;;;;;;17.50;98.20;;;;;;5014301;28;19910;-25
2022/10/07 06:06:37;;;;;;;;;;;17.50;98.20;;;;;;5014603;28;19910;-24
2022/10/07 06:14:31;;;;;;;;;;;17.50;98.30;;;;;;5014210;28;19916;-25
2022/10/07 06:16:57;;;;;;;;;;;17.50;98.30;;;;;;5014487;28;19906;-25
2022/10/07 06:19:22;;;;;;;;;;;17.50;98.30;;;;;;5013001;28;19905;-25
2022/10/07 06:21:48;;;;;;;;;;;17.50;98.20;;;;;;5014592;28;19905;-25
2022/10/07 06:24:14;;;;;;;;;;;17.50;98.30;;;;;;5012636;28;19922;-25
2022/10/07 06:26:41;;;;;;;;;;;17.50;98.30;;;;;;5014026;28;19917;-25
2022/10/07 06:29:07;;;;;;;;;;;17.50;98.20;;;;;;5012972;28;19996;-25
2022/10/07 06:31:33;;;;;;;;;;;17.50;98.20;;;;;;5014092;28;19910;-25
2022/10/07 06:33:58;;;;;;;;;;;17.50;98.30;;;;;;5013816;28;19968;-25
2022/10/07 06:36:24;;;;;;;;;;;17.50;98.30;;;;;;5013738;28;20306;-24
2022/10/07 06:38:51;;;;;;;;;;;17.50;98.20;;;;;;5013988;28;19905;-24
2022/10/07 06:41:17;;;;;;;;;;;17.50;98.20;;;;;;5013742;28;19909;-24
2022/10/07 06:43:43;;;;;;;;;;;17.50;98.20;;;;;;5013776;28;19913;-25
2022/10/07 06:46:13;;;;;;;;;;;17.60;98.30;;;;;;5013754;28;19963;-25
2022/10/07 06:48:39;;;;;;;;;;;17.50;98.20;;;;;;5014086;28;19996;-25
2022/10/07 06:51:05;;;;;;;;;;;17.50;98.20;;;;;;5012376;28;20274;-25
2022/10/07 06:53:31;;;;;;;;;;;17.50;98.20;;;;;;5013419;28;19977;-24
2022/10/07 06:56:00;;;;;;;;;;;17.60;98.20;;;;;;5013655;28;19917;-24
2022/10/07 06:58:26;;;;;;;;;;;17.60;98.10;;;;;;5013536;28;20016;-25
2022/10/07 07:00:55;;;;;;;;;;;17.70;98.10;;;;;;5013554;28;19909;-24
2022/10/07 07:03:21;;;;;;;;;;;17.70;98.10;;;;;;5013289;28;19905;-24
2022/10/07 07:05:46;;;;;;;;;;;17.70;98.10;;;;;;5013396;28;20385;-24
2022/10/07 07:08:14;;;;;;;;;;;17.70;98.10;;;;;;5013386;28;19992;-25
2022/10/07 07:10:41;;;;;;;;;;;17.70;98.10;;;;;;5013373;28;19910;-26
2022/10/07 07:13:07;;;;;;;;;;;17.70;98.10;;;;;;5013523;28;19976;-24
2022/10/07 07:15:33;;;;;;;;;;;17.70;98.10;;;;;;5011954;28;19996;-24
2022/10/07 07:17:59;;;;;;;;;;;17.70;98.10;;;;;;5013223;28;20362;-25
2022/10/07 07:20:24;;;;;;;;;;;17.70;98.10;;;;;;5013210;28;19917;-25
2022/10/07 07:22:53;;;;;;;;;;;17.70;98.10;;;;;;5012779;28;20011;-24
2022/10/07 07:25:19;;;;;;;;;;;17.70;98.10;;;;;;5013042;28;19916;-24
2022/10/07 07:27:47;;;;;;;;;;;17.70;98.10;;;;;;5013312;28;20278;-24
2022/10/07 07:30:13;;;;;;;;;;;17.70;98.00;;;;;;5013074;28;20278;-25
2022/10/07 07:32:38;;;;;;;;;;;17.70;98.00;;;;;;5012641;28;19905;-24
2022/10/07 07:35:05;;;;;;;;;;;17.80;98.00;;;;;;5012952;28;19905;-24
2022/10/07 07:37:30;;;;;;;;;;;17.80;98.00;;;;;;5011393;28;19913;-25
2022/10/07 07:39:56;;;;;;;;;;;17.80;98.40;;;;;;5012910;28;19932;-24
2022/10/07 07:42:21;;;;;;;;;;;17.70;98.90;;;;;;5012619;28;19905;-26
2022/10/07 07:44:47;;;;;;;;;;;17.70;99.00;;;;;;5012598;28;20004;-25
2022/10/07 07:47:15;;;;;;;;;;;17.70;99.10;;;;;;5012705;28;19927;-25
2022/10/07 07:49:41;;;;;;;;;;;17.70;99.10;;;;;;5012049;28;19960;-24
2022/10/07 07:52:07;;;;;;;;;;;17.80;99.00;;;;;;5012480;28;19988;-25
2022/10/07 07:54:36;;;;;;;;;;;17.80;98.90;;;;;;5012452;28;20301;-24
2022/10/07 07:57:02;;;;;;;;;;;17.90;98.80;;;;;;5012588;28;19909;-26
2022/10/07 07:59:28;;;;;;;;;;;17.90;98.70;;;;;;5011143;28;19905;-26
2022/10/07 08:01:53;;;;;;;;;;;17.90;98.60;;;;;;5011089;28;20039;-25
2022/10/07 08:04:19;;;;;;;;;;;17.90;98.60;;;;;;5012165;28;20008;-24
2022/10/07 08:06:45;;;;;;;;;;;18.00;98.60;;;;;;5012376;28;20012;-25
2022/10/07 08:09:11;;;;;;;;;;;18.00;98.50;;;;;;5011059;28;20394;-25
2022/10/07 08:11:37;;;;;;;;;;;18.00;98.40;;;;;;5012345;28;20413;-25
2022/10/07 08:14:03;;;;;;;;;;;18.10;98.50;;;;;;5011976;28;19961;-26
2022/10/07 08:16:29;;;;;;;;;;;18.10;98.40;;;;;;5012302;28;19952;-24
2022/10/07 08:18:55;;;;;;;;;;;18.10;98.40;;;;;;5012216;28;19951;-25
2022/10/07 08:21:23;;;;;;;;;;;18.10;98.40;;;;;;5010812;28;19913;-24
2022/10/07 08:23:53;;;;;;;;;;;18.10;98.40;;;;;;5010545;28;20298;-24
2022/10/07 08:26:18;;;;;;;;;;;18.10;98.30;;;;;;5012058;28;19913;-24
2022/10/07 08:28:45;;;;;;;;;;;18.20;98.30;;;;;;4994424;28;19912;-25
2022/10/07 08:31:11;;;;;;;;;;;18.20;98.30;;;;;;5010784;28;19911;-24
2022/10/07 08:33:38;;;;;;;;;;;18.20;98.20;;;;;;5010389;28;19916;-25
2022/10/07 08:36:04;;;;;;;;;;;18.20;98.20;;;;;;5012180;28;19915;-25
2022/10/07 08:38:31;;;;;;;;;;;18.20;98.20;;;;;;5012145;28;20370;-25
2022/10/07 08:41:04;;;;;;;;;;;18.20;98.20;;;;;;5012206;28;20286;-25
2022/10/07 08:43:30;;;;;;;;;;;18.30;98.20;;;;;;5011884;28;20370;-26
2022/10/07 08:45:55;;;;;;;;;;;18.30;98.10;;;;;;5011945;28;20373;-25
2022/10/07 08:48:25;;;;;;;;;;;18.30;98.10;;;;;;5012030;28;19996;-25
2022/10/07 08:50:57;;;;;;;;;;;18.30;98.10;;;;;;5011986;28;19905;-26
2022/10/07 08:53:28;;;;;;;;;;;18.30;98.10;;;;;;5012003;28;19936;-26
2022/10/07 08:55:55;;;;;;;;;;;18.40;98.10;;;;;;5011985;28;20282;-25
2022/10/07 08:58:39;;;;;;;;;;;18.40;98.00;;;;;;5012117;28;19996;-26
2022/10/07 09:01:23;;;;;;;;;;;18.40;98.00;;;;;;5014922;28;19915;-26
2022/10/07 09:03:58;;;;;;;;;;;18.50;98.40;;;;;;5015634;28;19912;-26
2022/10/07 09:06:29;;;;;;;;;;;18.50;98.00;;;;;;5015709;28;19916;-25
2022/10/07 09:08:58;;;;;;;;;;;18.50;98.00;;;;;;5015703;28;20263;-26
2022/10/07 09:11:24;;;;;;;;;;;18.50;98.00;;;;;;5015600;28;20012;-25
2022/10/07 09:13:55;;;;;;;;;;;18.50;98.00;;;;;;5015387;28;20596;-25
2022/10/07 09:16:50;;;;;;;;;;;18.60;98.00;;;;;;5015629;28;19916;-25
2022/10/07 09:19:20;;;;;;;;;;;18.60;97.90;;;;;;5010693;28;19905;-24
2022/10/07 09:21:50;;;;;;;;;;;18.60;97.90;;;;;;5015427;28;19951;-26
2022/10/07 09:24:23;;;;;;;;;;;18.60;97.90;;;;;;5015193;28;19905;-25
2022/10/07 09:26:53;;;;;;;;;;;18.60;97.80;;;;;;5015399;28;19928;-25
2022/10/07 09:29:21;;;;;;;;;;;18.70;97.80;;;;;;5015745;28;19905;-25
2022/10/07 09:31:48;;;;;;;;;;;18.70;97.80;;;;;;5015341;28;19913;-26
2022/10/07 09:34:22;;;;;;;;;;;18.70;97.80;;;;;;5015047;28;19905;-25
2022/10/07 09:37:06;;;;;;;;;;;18.80;97.80;;;;;;5015159;28;19909;-25
2022/10/07 09:39:32;;;;;;;;;;;18.80;97.80;;;;;;5015303;28;19917;-24
2022/10/07 09:41:57;;;;;;;;;;;18.80;97.70;;;;;;5015125;28;19910;-25
2022/10/07 09:44:24;;;;;;;;;;;18.80;97.70;;;;;;5014872;28;19909;-25
2022/10/07 09:46:52;;;;;;;;;;;18.90;97.70;;;;;;5015070;28;19912;-25
2022/10/07 09:49:28;;;;;;;;;;;18.90;97.70;;;;;;5015151;28;19909;-24
2022/10/07 09:51:57;;;;;;;;;;;18.90;97.70;;;;;;5015029;28;19905;-25
2022/10/07 09:54:23;;;;;;;;;;;18.90;97.70;;;;;;5014889;28;20310;-25
2022/10/07 09:56:53;;;;;;;;;;;18.90;97.60;;;;;;5014987;28;20267;-25
2022/10/07 09:59:20;;;;;;;;;;;19.00;97.70;;;;;;5014258;28;19913;-26
2022/10/07 10:01:49;;;;;;;;;;;19.00;99.00;;;;;;5014350;28;20210;-27
2022/10/07 10:04:15;;;;;;;;;;;19.10;99.00;;;;;;5013922;28;19912;-25
2022/10/07 10:06:48;;;;;;;;;;;19.10;99.10;;;;;;5013556;28;19912;-26
2022/10/07 10:09:18;;;;;;;;;;;19.20;98.60;;;;;;5014623;28;19932;-27
2022/10/07 10:11:44;;;;;;;;;;;19.30;98.50;;;;;;5013773;28;20347;-27
2022/10/07 10:14:35;;;;;;;;;;;19.30;98.30;;;;;;5014211;28;19924;-27
2022/10/07 10:17:02;;;;;;;;;;;19.40;98.20;;;;;;5014624;28;20278;-26
2022/10/07 10:19:28;;;;;;;;;;;19.40;98.10;;;;;;5014460;28;19906;-25
2022/10/07 10:21:55;;;;;;;;;;;19.50;98.00;;;;;;5014258;28;19929;-26
2022/10/07 10:26:24;;;;;;;;;;;19.50;98.00;;;;;;5013877;28;19905;-25
2022/10/07 10:27:11;;;;;;;;;;;19.50;97.90;;;;;;5014110;28;20000;-25
2022/10/07 10:29:43;;;;;;;;;;;19.50;97.80;;;;;;5014214;28;19917;-26
2022/10/07 10:32:35;;;;;;;;;;;19.60;97.80;;;;;;5013947;28;19960;-26
2022/10/07 10:35:12;;;;;;;;;;;19.60;97.80;;;;;;4990355;28;19905;-25
2022/10/07 10:37:38;;;;;;;;;;;19.60;97.70;;;;;;5012672;28;19918;-26
2022/10/07 10:40:12;;;;;;;;;;;19.60;97.70;;;;;;5012557;28;19905;-25
2022/10/07 10:42:53;;;;;;;;;;;19.70;97.70;;;;;;5013641;28;19905;-27
2022/10/07 10:45:43;;;;;;;;;;;19.70;97.70;;;;;;5014006;28;19932;-25
2022/10/07 10:48:12;;;;;;;;;;;19.70;97.70;;;;;;5014044;28;19928;-27
2022/10/07 10:50:51;;;;;;;;;;;19.70;97.70;;;;;;5013811;28;20314;-25
2022/10/07 10:53:28;;;;;;;;;;;19.70;97.60;;;;;;5011945;28;19913;-24
2022/10/07 10:56:05;;;;;;;;;;;19.70;97.60;;;;;;5013631;28;20362;-26
2022/10/07 10:58:58;;;;;;;;;;;19.70;97.60;;;;;;5013939;28;19971;-26
2022/10/07 11:01:26;;;;;;;;;;;19.80;97.60;;;;;;5012720;28;20000;-26
2022/10/07 11:04:05;;;;;;;;;;;19.80;97.60;;;;;;5012082;28;19909;-25
2022/10/07 11:06:33;;;;;;;;;;;19.80;97.60;;;;;;5013815;28;19916;-25
2022/10/07 11:08:59;;;;;;;;;;;19.80;97.50;;;;;;5013497;28;19913;-26
2022/10/07 11:11:26;;;;;;;;;;;19.80;97.50;;;;;;5013602;28;19905;-27
2022/10/07 11:14:00;;;;;;;;;;;19.80;97.50;;;;;;5013002;28;19967;-25
2022/10/07 11:16:35;;;;;;;;;;;19.90;97.50;;;;;;5012380;28;19967;-27
2022/10/07 11:19:01;;;;;;;;;;;19.90;97.50;;;;;;5013351;28;19913;-27
2022/10/07 11:21:36;;;;;;;;;;;19.90;97.40;;;;;;5013336;28;19909;-25
2022/10/07 11:24:09;;;;;;;;;;;19.90;97.40;;;;;;5010925;28;19979;-25
2022/10/07 11:26:37;;;;;;;;;;;20.00;97.40;;;;;;5013316;28;20286;-26
2022/10/07 11:29:25;;;;;;;;;;;20.00;97.40;;;;;;5013269;28;19906;-25
2022/10/07 11:31:57;;;;;;;;;;;20.00;97.40;;;;;;5003889;28;19905;-27
2022/10/07 11:34:35;;;;;;;;;;;20.00;97.40;;;;;;5011952;28;19905;-27
2022/10/07 11:37:05;;;;;;;;;;;20.00;97.40;;;;;;5012770;28;19906;-27
2022/10/07 11:39:32;;;;;;;;;;;20.00;97.50;;;;;;5011558;28;20351;-25
2022/10/07 11:42:00;;;;;;;;;;;19.90;97.60;;;;;;5012978;28;20051;-25
2022/10/07 11:44:32;;;;;;;;;;;19.90;97.60;;;;;;5012909;28;19913;-28
2022/10/07 11:47:01;;;;;;;;;;;20.00;97.60;;;;;;5012756;28;20418;-26
2022/10/07 11:49:32;;;;;;;;;;;19.90;97.90;;;;;;5012812;28;19909;-25
2022/10/07 11:52:00;;;;;;;;;;;19.90;97.90;;;;;;5011738;28;19909;-25
2022/10/07 11:54:27;;;;;;;;;;;19.90;97.90;;;;;;5012577;28;19905;-25
2022/10/07 11:56:55;;;;;;;;;;;19.90;97.80;;;;;;5012735;28;19992;-25
2022/10/07 11:59:41;;;;;;;;;;;20.00;97.70;;;;;;5012504;28;19917;-27
2022/10/07 12:02:26;;;;;;;;;;;20.10;98.00;;;;;;5011067;28;19905;-27
2022/10/07 12:04:52;;;;;;;;;;;20.10;97.60;;;;;;5012691;28;19913;-26
2022/10/07 12:07:33;;;;;;;;;;;20.10;97.50;;;;;;5011416;28;19913;-26
2022/10/07 12:10:08;;;;;;;;;;;20.20;97.50;;;;;;5011253;28;20248;-26
2022/10/07 12:12:46;;;;;;;;;;;20.20;97.40;;;;;;5012216;28;19918;-26
2022/10/07 12:15:25;;;;;;;;;;;20.20;97.40;;;;;;5012722;28;19905;-26
2022/10/07 12:18:03;;;;;;;;;;;20.20;97.40;;;;;;5012899;28;19916;-26
2022/10/07 12:20:32;;;;;;;;;;;20.20;97.30;;;;;;5011404;28;19906;-25
2022/10/07 12:23:19;;;;;;;;;;;20.30;97.30;;;;;;5010693;28;19912;-26
2022/10/07 12:25:54;;;;;;;;;;;20.30;97.30;;;;;;5011211;28;20321;-27
2022/10/07 12:28:33;;;;;;;;;;;20.30;97.30;;;;;;5012434;28;19949;-26
2022/10/07 12:31:20;;;;;;;;;;;20.30;97.30;;;;;;5012395;28;20374;-27
2022/10/07 12:33:46;;;;;;;;;;;20.30;97.30;;;;;;5002380;28;19937;-26
2022/10/07 12:36:17;;;;;;;;;;;20.30;97.30;;;;;;5011089;28;19909;-25
2022/10/07 12:38:55;;;;;;;;;;;20.30;97.30;;;;;;5012813;28;19905;-25
2022/10/07 12:41:24;;;;;;;;;;;20.30;97.30;;;;;;5012956;28;19960;-25
2022/10/07 12:43:53;;;;;;;;;;;20.30;97.30;;;;;;5012114;28;20382;-25
2022/10/07 12:46:20;;;;;;;;;;;20.30;97.30;;;;;;5012912;28;19976;-25
2022/10/07 12:48:49;;;;;;;;;;;20.30;97.30;;;;;;5012596;28;19913;-26
2022/10/07 12:51:22;;;;;;;;;;;20.30;97.30;;;;;;5010830;28;19927;-27
2022/10/07 12:53:49;;;;;;;;;;;20.30;97.30;;;;;;5011775;28;19909;-25
2022/10/07 12:56:33;;;;;;;;;;;20.30;97.30;;;;;;5012139;28;20359;-25
2022/10/07 13:01:53;;;;;;;;;;;20.30;97.30;;;;;;5012296;28;19951;-26
2022/10/07 13:04:37;;;;;;;;;;;20.30;97.30;;;;;;5011663;28;19937;-25
2022/10/07 13:07:22;;;;;;;;;;;20.30;97.30;;;;;;5011861;28;19916;-26
2022/10/07 13:09:55;;;;;;;;;;;20.30;97.30;;;;;;5011922;28;19905;-25
2022/10/07 13:14:51;;;;;;;;;;;20.30;97.30;;;;;;5047889;28;19928;-24
2022/10/07 13:17:22;;;;;;;;;;;20.30;97.30;;;;;;5051288;28;19911;-23
2022/10/07 13:19:55;;;;;;;;;;;20.30;97.40;;;;;;5051441;28;19904;-23
2022/10/07 13:22:23;;;;;;;;;;;20.30;97.40;;;;;;5051158;28;19905;-24
2022/10/07 13:24:59;;;;;;;;;;;20.30;97.40;;;;;;5051582;28;20002;-24
2022/10/07 13:27:26;;;;;;;;;;;20.30;97.30;;;;;;5051312;28;19908;-24
2022/10/07 13:29:52;;;;;;;;;;;20.30;97.40;;;;;;5051287;28;19959;-24
2022/10/07 13:32:24;;;;;;;;;;;20.30;97.40;;;;;;5051228;28;19908;-23
2022/10/07 13:34:53;;;;;;;;;;;20.30;97.40;;;;;;5051613;28;20267;-23
2022/10/07 13:37:38;;;;;;;;;;;20.30;97.40;;;;;;5051091;28;19904;-24
2022/10/07 13:40:22;;;;;;;;;;;20.30;97.40;;;;;;5043631;28;19987;-24
2022/10/07 13:42:55;;;;;;;;;;;20.30;97.40;;;;;;5051263;28;20281;-23
2022/10/07 13:45:21;;;;;;;;;;;20.30;97.80;;;;;;5049816;28;20012;-23
2022/10/07 13:47:46;;;;;;;;;;;20.30;97.40;;;;;;5053698;28;20003;-23
2022/10/07 13:50:16;;;;;;;;;;;20.30;97.40;;;;;;5054640;28;19904;-23
2022/10/07 13:52:45;;;;;;;;;;;20.30;97.40;;;;;;5054444;28;19999;-23
2022/10/07 13:55:30;;;;;;;;;;;20.30;97.40;;;;;;5054866;28;19910;-23
2022/10/07 13:57:56;;;;;;;;;;;20.30;97.50;;;;;;5054544;28;19905;-23
2022/10/07 14:00:23;;;;;;;;;;;20.30;97.50;;;;;;5054570;28;19909;-26
2022/10/07 14:02:49;;;;;;;;;;;20.30;97.50;;;;;;5054109;28;19912;-24
2022/10/07 14:05:35;;;;;;;;;;;20.30;97.50;;;;;;5054451;28;19909;-23
2022/10/07 14:08:13;;;;;;;;;;;20.30;97.40;;;;;;5053924;28;19905;-23
2022/10/07 14:10:56;;;;;;;;;;;20.30;97.40;;;;;;5054348;28;19963;-24
2022/10/07 14:13:22;;;;;;;;;;;20.30;97.40;;;;;;5054432;28;19942;-23
2022/10/07 14:15:50;;;;;;;;;;;20.30;97.40;;;;;;5053652;28;19966;-23
2022/10/07 14:18:16;;;;;;;;;;;20.30;97.40;;;;;;5054132;28;19905;-23
2022/10/07 14:20:48;;;;;;;;;;;20.30;97.40;;;;;;5054387;28;19904;-23
2022/10/07 14:23:27;;;;;;;;;;;20.30;97.40;;;;;;5053894;28;20271;-23
2022/10/07 14:25:53;;;;;;;;;;;20.30;97.40;;;;;;5054037;28;20018;-23
2022/10/07 14:28:26;;;;;;;;;;;20.30;97.50;;;;;;5052821;28;19955;-23
2022/10/07 14:37:07;;;;;;;;;;;20.30;97.50;;;;;;5054077;28;19919;-23
2022/10/07 14:39:37;;;;;;;;;;;20.30;97.50;;;;;;5053800;28;20397;-23
2022/10/07 14:42:04;;;;;;;;;;;20.30;97.50;;;;;;5053613;28;20096;-23
2022/10/07 14:44:30;;;;;;;;;;;20.20;97.50;;;;;;5053472;28;19941;-23
2022/10/07 14:47:23;;;;;;;;;;;20.20;97.50;;;;;;5053627;28;19993;-23
2022/10/07 14:49:50;;;;;;;;;;;20.20;97.50;;;;;;5051936;28;19905;-23